sensor_id;sensor_type;location;lat;lon;timestamp;temperature;humidity
23729;DHT22;12045;60.214;24.724;2022-07-01T00:01:47;20.40;94.10
23729;DHT22;12045;60.214;24.724;2022-07-01T00:04:15;20.40;94.20
23729;DHT22;12045;60.214;24.724;2022-07-01T00:06:43;20.40;94.00
23729;DHT22;12045;60.214;24.724;2022-07-01T00:09:10;20.30;93.90
23729;DHT22;12045;60.214;24.724;2022-07-01T00:11:38;20.30;93.70
23729;DHT22;12045;60.214;24.724;2022-07-01T00:14:05;20.20;93.90
23729;DHT22;12045;60.214;24.724;2022-07-01T00:16:34;20.10;94.10
23729;DHT22;12045;60.214;24.724;2022-07-01T00:19:02;20.10;94.40
23729;DHT22;12045;60.214;24.724;2022-07-01T00:21:31;20.10;93.90
23729;DHT22;12045;60.214;24.724;2022-07-01T00:23:58;20.10;94.40
23729;DHT22;12045;60.214;24.724;2022-07-01T00:26:26;20.10;94.80
23729;DHT22;12045;60.214;24.724;2022-07-01T00:28:54;20.10;95.20
23729;DHT22;12045;60.214;24.724;2022-07-01T00:31:21;20.10;95.40
23729;DHT22;12045;60.214;24.724;2022-07-01T00:33:50;20.10;95.50
23729;DHT22;12045;60.214;24.724;2022-07-01T00:36:17;20.20;95.70
23729;DHT22;12045;60.214;24.724;2022-07-01T00:38:45;20.20;95.30
23729;DHT22;12045;60.214;24.724;2022-07-01T00:41:13;20.20;95.80
23729;DHT22;12045;60.214;24.724;2022-07-01T00:43:40;20.20;96.00
23729;DHT22;12045;60.214;24.724;2022-07-01T00:46:22;20.10;96.60
23729;DHT22;12045;60.214;24.724;2022-07-01T00:48:56;20.10;97.10
23729;DHT22;12045;60.214;24.724;2022-07-01T00:51:29;20.10;97.20
23729;DHT22;12045;60.214;24.724;2022-07-01T00:56:32;20.20;97.20
23729;DHT22;12045;60.214;24.724;2022-07-01T00:59:04;20.20;97.40
23729;DHT22;12045;60.214;24.724;2022-07-01T01:01:33;20.20;97.40
23729;DHT22;12045;60.214;24.724;2022-07-01T01:04:05;20.20;96.60
23729;DHT22;12045;60.214;24.724;2022-07-01T01:06:36;20.30;96.50
23729;DHT22;12045;60.214;24.724;2022-07-01T01:09:09;20.30;96.70
23729;DHT22;12045;60.214;24.724;2022-07-01T01:11:43;20.20;96.80
23729;DHT22;12045;60.214;24.724;2022-07-01T01:14:10;20.20;96.80
23729;DHT22;12045;60.214;24.724;2022-07-01T01:16:39;20.20;96.90
23729;DHT22;12045;60.214;24.724;2022-07-01T01:19:09;20.10;97.30
23729;DHT22;12045;60.214;24.724;2022-07-01T01:21:37;20.10;97.30
23729;DHT22;12045;60.214;24.724;2022-07-01T01:24:07;20.10;97.60
23729;DHT22;12045;60.214;24.724;2022-07-01T01:26:36;20.10;97.60
23729;DHT22;12045;60.214;24.724;2022-07-01T01:29:07;20.10;97.80
23729;DHT22;12045;60.214;24.724;2022-07-01T01:31:38;20.20;98.00
23729;DHT22;12045;60.214;24.724;2022-07-01T01:34:08;20.20;98.40
23729;DHT22;12045;60.214;24.724;2022-07-01T01:36:37;20.10;99.30
23729;DHT22;12045;60.214;24.724;2022-07-01T01:39:06;20.00;99.90
23729;DHT22;12045;60.214;24.724;2022-07-01T01:41:35;20.00;99.90
23729;DHT22;12045;60.214;24.724;2022-07-01T01:44:03;19.90;99.90
23729;DHT22;12045;60.214;24.724;2022-07-01T01:46:40;19.90;99.90
23729;DHT22;12045;60.214;24.724;2022-07-01T01:49:08;20.00;99.90
23729;DHT22;12045;60.214;24.724;2022-07-01T01:51:38;20.00;99.90
23729;DHT22;12045;60.214;24.724;2022-07-01T01:54:06;20.00;99.90
23729;DHT22;12045;60.214;24.724;2022-07-01T01:56:34;20.10;99.90
23729;DHT22;12045;60.214;24.724;2022-07-01T01:59:02;20.20;99.90
23729;DHT22;12045;60.214;24.724;2022-07-01T02:01:32;20.30;99.90
23729;DHT22;12045;60.214;24.724;2022-07-01T02:04:02;20.40;99.90
23729;DHT22;12045;60.214;24.724;2022-07-01T02:06:35;20.40;99.90
23729;DHT22;12045;60.214;24.724;2022-07-01T02:09:03;20.40;99.90
23729;DHT22;12045;60.214;24.724;2022-07-01T02:11:35;20.40;99.90
23729;DHT22;12045;60.214;24.724;2022-07-01T02:14:04;20.40;99.90
23729;DHT22;12045;60.214;24.724;2022-07-01T02:16:32;20.40;99.90
23729;DHT22;12045;60.214;24.724;2022-07-01T02:19:02;20.40;99.90
23729;DHT22;12045;60.214;24.724;2022-07-01T02:21:33;20.50;99.90
23729;DHT22;12045;60.214;24.724;2022-07-01T02:24:04;20.50;99.90
23729;DHT22;12045;60.214;24.724;2022-07-01T02:26:34;20.60;99.90
23729;DHT22;12045;60.214;24.724;2022-07-01T02:29:04;20.70;99.90
23729;DHT22;12045;60.214;24.724;2022-07-01T02:31:37;20.70;99.90
23729;DHT22;12045;60.214;24.724;2022-07-01T02:34:08;20.80;99.90
23729;DHT22;12045;60.214;24.724;2022-07-01T02:36:37;20.80;99.90
23729;DHT22;12045;60.214;24.724;2022-07-01T02:39:08;20.90;99.90
23729;DHT22;12045;60.214;24.724;2022-07-01T02:41:36;20.90;99.90
23729;DHT22;12045;60.214;24.724;2022-07-01T02:44:24;21.00;99.90
23729;DHT22;12045;60.214;24.724;2022-07-01T02:46:53;21.00;99.90
23729;DHT22;12045;60.214;24.724;2022-07-01T02:49:22;21.10;99.90
23729;DHT22;12045;60.214;24.724;2022-07-01T02:51:52;21.10;99.90
23729;DHT22;12045;60.214;24.724;2022-07-01T02:54:21;21.20;99.90
23729;DHT22;12045;60.214;24.724;2022-07-01T02:56:52;21.30;99.90
23729;DHT22;12045;60.214;24.724;2022-07-01T02:59:23;21.40;99.90
23729;DHT22;12045;60.214;24.724;2022-07-01T03:01:57;21.50;99.90
23729;DHT22;12045;60.214;24.724;2022-07-01T03:04:39;21.50;99.90
23729;DHT22;12045;60.214;24.724;2022-07-01T03:07:09;21.80;99.90
23729;DHT22;12045;60.214;24.724;2022-07-01T03:09:55;22.00;99.90
23729;DHT22;12045;60.214;24.724;2022-07-01T03:12:31;22.20;99.90
23729;DHT22;12045;60.214;24.724;2022-07-01T03:15:10;22.50;99.90
23729;DHT22;12045;60.214;24.724;2022-07-01T03:17:42;22.70;99.90
23729;DHT22;12045;60.214;24.724;2022-07-01T03:20:12;22.90;99.90
23729;DHT22;12045;60.214;24.724;2022-07-01T03:22:45;23.00;99.90
23729;DHT22;12045;60.214;24.724;2022-07-01T03:25:15;23.20;99.90
23729;DHT22;12045;60.214;24.724;2022-07-01T03:28:01;23.20;99.90
23729;DHT22;12045;60.214;24.724;2022-07-01T03:30:44;23.40;99.90
23729;DHT22;12045;60.214;24.724;2022-07-01T03:33:18;23.60;99.90
23729;DHT22;12045;60.214;24.724;2022-07-01T03:35:48;23.70;99.90
23729;DHT22;12045;60.214;24.724;2022-07-01T03:38:33;23.80;99.90
23729;DHT22;12045;60.214;24.724;2022-07-01T03:41:05;23.90;99.90
23729;DHT22;12045;60.214;24.724;2022-07-01T03:43:38;23.80;99.90
23729;DHT22;12045;60.214;24.724;2022-07-01T03:46:47;23.70;99.90
23729;DHT22;12045;60.214;24.724;2022-07-01T03:49:31;23.60;99.90
23729;DHT22;12045;60.214;24.724;2022-07-01T03:52:15;23.70;99.90
23729;DHT22;12045;60.214;24.724;2022-07-01T03:55:03;23.70;99.90
23729;DHT22;12045;60.214;24.724;2022-07-01T03:57:34;23.70;99.90
23729;DHT22;12045;60.214;24.724;2022-07-01T04:00:26;23.60;99.90
23729;DHT22;12045;60.214;24.724;2022-07-01T04:03:33;23.70;99.90
23729;DHT22;12045;60.214;24.724;2022-07-01T04:06:21;23.90;99.90
23729;DHT22;12045;60.214;24.724;2022-07-01T04:09:08;24.00;99.90
23729;DHT22;12045;60.214;24.724;2022-07-01T04:12:24;24.10;99.90
23729;DHT22;12045;60.214;24.724;2022-07-01T04:15:49;24.00;99.90
23729;DHT22;12045;60.214;24.724;2022-07-01T04:19:10;24.10;99.90
23729;DHT22;12045;60.214;24.724;2022-07-01T04:22:00;24.30;99.90
23729;DHT22;12045;60.214;24.724;2022-07-01T04:25:08;24.40;99.90
23729;DHT22;12045;60.214;24.724;2022-07-01T04:27:53;24.50;99.90
23729;DHT22;12045;60.214;24.724;2022-07-01T04:30:54;24.70;99.90
23729;DHT22;12045;60.214;24.724;2022-07-01T04:33:35;24.90;99.90
23729;DHT22;12045;60.214;24.724;2022-07-01T04:36:24;24.90;99.90
23729;DHT22;12045;60.214;24.724;2022-07-01T04:40:07;25.00;99.90
23729;DHT22;12045;60.214;24.724;2022-07-01T04:43:31;24.90;99.90
23729;DHT22;12045;60.214;24.724;2022-07-01T04:46:16;24.90;99.10
23729;DHT22;12045;60.214;24.724;2022-07-01T04:49:02;25.00;99.40
23729;DHT22;12045;60.214;24.724;2022-07-01T04:51:30;25.00;98.50
23729;DHT22;12045;60.214;24.724;2022-07-01T04:54:17;24.90;98.10
23729;DHT22;12045;60.214;24.724;2022-07-01T04:57:17;25.00;97.70
23729;DHT22;12045;60.214;24.724;2022-07-01T04:59:56;24.90;97.50
23729;DHT22;12045;60.214;24.724;2022-07-01T05:02:38;24.90;97.20
23729;DHT22;12045;60.214;24.724;2022-07-01T05:05:46;24.80;96.70
23729;DHT22;12045;60.214;24.724;2022-07-01T05:08:40;25.00;96.80
23729;DHT22;12045;60.214;24.724;2022-07-01T05:11:23;25.00;96.80
23729;DHT22;12045;60.214;24.724;2022-07-01T05:13:51;25.20;96.70
23729;DHT22;12045;60.214;24.724;2022-07-01T05:16:20;25.20;96.70
23729;DHT22;12045;60.214;24.724;2022-07-01T05:18:51;25.20;97.00
23729;DHT22;12045;60.214;24.724;2022-07-01T05:21:41;25.20;96.40
23729;DHT22;12045;60.214;24.724;2022-07-01T05:24:26;25.30;96.30
23729;DHT22;12045;60.214;24.724;2022-07-01T05:27:02;25.30;96.30
23729;DHT22;12045;60.214;24.724;2022-07-01T05:29:31;25.30;96.60
23729;DHT22;12045;60.214;24.724;2022-07-01T05:31:59;25.50;96.20
23729;DHT22;12045;60.214;24.724;2022-07-01T05:34:27;25.60;96.60
23729;DHT22;12045;60.214;24.724;2022-07-01T05:36:58;25.70;96.00
23729;DHT22;12045;60.214;24.724;2022-07-01T05:39:26;25.60;96.20
23729;DHT22;12045;60.214;24.724;2022-07-01T05:41:53;25.50;96.10
23729;DHT22;12045;60.214;24.724;2022-07-01T05:44:22;25.50;95.80
23729;DHT22;12045;60.214;24.724;2022-07-01T05:46:50;25.60;95.90
23729;DHT22;12045;60.214;24.724;2022-07-01T05:49:18;25.90;95.90
23729;DHT22;12045;60.214;24.724;2022-07-01T05:51:48;25.80;95.40
23729;DHT22;12045;60.214;24.724;2022-07-01T05:54:15;25.80;94.90
23729;DHT22;12045;60.214;24.724;2022-07-01T05:56:43;25.70;95.90
23729;DHT22;12045;60.214;24.724;2022-07-01T05:59:11;25.70;95.70
23729;DHT22;12045;60.214;24.724;2022-07-01T06:01:41;25.70;95.50
23729;DHT22;12045;60.214;24.724;2022-07-01T06:04:17;25.80;95.40
23729;DHT22;12045;60.214;24.724;2022-07-01T06:06:45;25.80;94.80
23729;DHT22;12045;60.214;24.724;2022-07-01T06:09:14;25.60;95.00
23729;DHT22;12045;60.214;24.724;2022-07-01T06:11:43;25.50;94.70
23729;DHT22;12045;60.214;24.724;2022-07-01T06:14:10;25.60;94.70
23729;DHT22;12045;60.214;24.724;2022-07-01T06:16:38;25.70;94.90
23729;DHT22;12045;60.214;24.724;2022-07-01T06:19:08;25.80;94.30
23729;DHT22;12045;60.214;24.724;2022-07-01T06:21:36;25.80;94.20
23729;DHT22;12045;60.214;24.724;2022-07-01T06:24:04;25.90;94.20
23729;DHT22;12045;60.214;24.724;2022-07-01T06:26:31;25.90;94.00
23729;DHT22;12045;60.214;24.724;2022-07-01T06:29:00;26.00;93.40
23729;DHT22;12045;60.214;24.724;2022-07-01T06:31:28;26.10;93.40
23729;DHT22;12045;60.214;24.724;2022-07-01T06:33:56;26.20;92.60
23729;DHT22;12045;60.214;24.724;2022-07-01T06:36:23;26.30;92.90
23729;DHT22;12045;60.214;24.724;2022-07-01T06:38:51;26.20;92.60
23729;DHT22;12045;60.214;24.724;2022-07-01T06:41:19;26.30;92.70
23729;DHT22;12045;60.214;24.724;2022-07-01T06:43:58;26.40;92.80
23729;DHT22;12045;60.214;24.724;2022-07-01T06:46:28;26.50;92.20
23729;DHT22;12045;60.214;24.724;2022-07-01T06:48:55;26.50;92.10
23729;DHT22;12045;60.214;24.724;2022-07-01T06:51:24;26.60;91.30
23729;DHT22;12045;60.214;24.724;2022-07-01T06:53:55;26.70;90.50
23729;DHT22;12045;60.214;24.724;2022-07-01T06:56:23;26.80;90.40
23729;DHT22;12045;60.214;24.724;2022-07-01T06:58:51;26.90;88.90
23729;DHT22;12045;60.214;24.724;2022-07-01T07:01:23;27.00;90.20
23729;DHT22;12045;60.214;24.724;2022-07-01T07:03:51;27.10;89.70
23729;DHT22;12045;60.214;24.724;2022-07-01T07:06:19;27.20;89.30
23729;DHT22;12045;60.214;24.724;2022-07-01T07:08:49;27.10;89.60
23729;DHT22;12045;60.214;24.724;2022-07-01T07:11:18;27.30;89.60
23729;DHT22;12045;60.214;24.724;2022-07-01T07:13:47;27.30;88.50
23729;DHT22;12045;60.214;24.724;2022-07-01T07:16:16;27.40;87.70
23729;DHT22;12045;60.214;24.724;2022-07-01T07:18:49;27.30;87.20
23729;DHT22;12045;60.214;24.724;2022-07-01T07:21:20;27.30;87.70
23729;DHT22;12045;60.214;24.724;2022-07-01T07:23:49;27.40;86.00
23729;DHT22;12045;60.214;24.724;2022-07-01T07:26:17;27.30;85.90
23729;DHT22;12045;60.214;24.724;2022-07-01T07:28:46;27.20;84.20
23729;DHT22;12045;60.214;24.724;2022-07-01T07:31:13;27.20;85.00
23729;DHT22;12045;60.214;24.724;2022-07-01T07:33:41;27.20;85.80
23729;DHT22;12045;60.214;24.724;2022-07-01T07:36:09;27.20;85.50
23729;DHT22;12045;60.214;24.724;2022-07-01T07:38:37;27.20;86.50
23729;DHT22;12045;60.214;24.724;2022-07-01T07:41:05;27.20;85.80
23729;DHT22;12045;60.214;24.724;2022-07-01T07:43:35;27.10;86.30
23729;DHT22;12045;60.214;24.724;2022-07-01T07:46:03;27.10;85.90
23729;DHT22;12045;60.214;24.724;2022-07-01T07:48:32;27.00;85.10
23729;DHT22;12045;60.214;24.724;2022-07-01T07:50:59;27.00;84.70
23729;DHT22;12045;60.214;24.724;2022-07-01T07:53:30;26.90;83.10
23729;DHT22;12045;60.214;24.724;2022-07-01T07:55:58;26.90;83.40
23729;DHT22;12045;60.214;24.724;2022-07-01T07:58:27;26.90;83.60
23729;DHT22;12045;60.214;24.724;2022-07-01T08:00:57;26.90;84.40
23729;DHT22;12045;60.214;24.724;2022-07-01T08:03:29;26.90;83.20
23729;DHT22;12045;60.214;24.724;2022-07-01T08:05:57;27.00;85.00
23729;DHT22;12045;60.214;24.724;2022-07-01T08:08:25;27.20;84.70
23729;DHT22;12045;60.214;24.724;2022-07-01T08:13:31;27.50;81.50
23729;DHT22;12045;60.214;24.724;2022-07-01T08:20:18;28.00;80.40
23729;DHT22;12045;60.214;24.724;2022-07-01T08:22:49;28.20;80.10
23729;DHT22;12045;60.214;24.724;2022-07-01T08:25:17;28.20;79.30
23729;DHT22;12045;60.214;24.724;2022-07-01T08:27:44;28.20;75.60
23729;DHT22;12045;60.214;24.724;2022-07-01T08:30:12;28.40;74.50
23729;DHT22;12045;60.214;24.724;2022-07-01T08:32:39;28.40;73.20
23729;DHT22;12045;60.214;24.724;2022-07-01T09:40:01;28.20;99.90
23729;DHT22;12045;60.214;24.724;2022-07-01T09:42:49;28.20;99.90
23729;DHT22;12045;60.214;24.724;2022-07-01T09:45:50;28.00;99.90
23729;DHT22;12045;60.214;24.724;2022-07-01T09:50:48;27.80;99.90
23729;DHT22;12045;60.214;24.724;2022-07-01T09:53:44;27.80;99.90
23729;DHT22;12045;60.214;24.724;2022-07-01T09:56:12;27.60;99.90
23729;DHT22;12045;60.214;24.724;2022-07-01T09:59:09;27.60;99.90
23729;DHT22;12045;60.214;24.724;2022-07-01T10:01:53;27.70;99.90
23729;DHT22;12045;60.214;24.724;2022-07-01T10:04:31;27.70;99.90
23729;DHT22;12045;60.214;24.724;2022-07-01T10:07:08;28.00;99.90
23729;DHT22;12045;60.214;24.724;2022-07-01T10:12:55;28.40;99.90
23729;DHT22;12045;60.214;24.724;2022-07-01T10:15:23;28.50;99.90
23729;DHT22;12045;60.214;24.724;2022-07-01T10:17:59;28.50;99.90
23729;DHT22;12045;60.214;24.724;2022-07-01T10:20:29;28.10;99.90
23729;DHT22;12045;60.214;24.724;2022-07-01T10:23:03;28.40;99.90
23729;DHT22;12045;60.214;24.724;2022-07-01T10:25:42;28.30;99.80
23729;DHT22;12045;60.214;24.724;2022-07-01T10:31:04;28.60;99.90
23729;DHT22;12045;60.214;24.724;2022-07-01T10:47:37;30.20;95.60
23729;DHT22;12045;60.214;24.724;2022-07-01T10:50:10;30.00;94.10
23729;DHT22;12045;60.214;24.724;2022-07-01T10:52:38;30.30;71.60
23729;DHT22;12045;60.214;24.724;2022-07-01T10:55:08;30.50;70.60
23729;DHT22;12045;60.214;24.724;2022-07-01T10:57:40;30.60;69.90
23729;DHT22;12045;60.214;24.724;2022-07-01T11:02:37;30.00;70.60
23729;DHT22;12045;60.214;24.724;2022-07-01T11:05:14;29.90;70.40
23729;DHT22;12045;60.214;24.724;2022-07-01T11:07:44;29.80;71.90
23729;DHT22;12045;60.214;24.724;2022-07-01T11:10:15;29.80;70.40
23729;DHT22;12045;60.214;24.724;2022-07-01T11:12:43;29.80;70.30
23729;DHT22;12045;60.214;24.724;2022-07-01T11:15:11;29.70;70.20
23729;DHT22;12045;60.214;24.724;2022-07-01T11:17:46;29.60;71.80
23729;DHT22;12045;60.214;24.724;2022-07-01T11:20:14;29.70;71.40
23729;DHT22;12045;60.214;24.724;2022-07-01T11:22:49;29.90;68.50
23729;DHT22;12045;60.214;24.724;2022-07-01T11:25:19;30.10;69.80
23729;DHT22;12045;60.214;24.724;2022-07-01T11:27:48;30.30;67.50
23729;DHT22;12045;60.214;24.724;2022-07-01T11:30:18;30.40;66.20
23729;DHT22;12045;60.214;24.724;2022-07-01T11:32:54;30.50;66.90
23729;DHT22;12045;60.214;24.724;2022-07-01T11:35:30;30.70;66.30
23729;DHT22;12045;60.214;24.724;2022-07-01T11:38:23;30.80;65.80
23729;DHT22;12045;60.214;24.724;2022-07-01T11:43:58;31.10;97.80
23729;DHT22;12045;60.214;24.724;2022-07-01T11:46:32;31.20;97.00
23729;DHT22;12045;60.214;24.724;2022-07-01T11:51:28;31.30;97.60
23729;DHT22;12045;60.214;24.724;2022-07-01T11:53:57;31.30;97.40
23729;DHT22;12045;60.214;24.724;2022-07-01T11:56:30;31.50;66.30
23729;DHT22;12045;60.214;24.724;2022-07-01T11:58:58;31.50;66.00
23729;DHT22;12045;60.214;24.724;2022-07-01T12:01:36;31.50;66.00
23729;DHT22;12045;60.214;24.724;2022-07-01T12:04:07;31.50;66.10
23729;DHT22;12045;60.214;24.724;2022-07-01T12:06:37;31.50;66.10
23729;DHT22;12045;60.214;24.724;2022-07-01T12:09:17;31.50;65.90
23729;DHT22;12045;60.214;24.724;2022-07-01T12:11:49;31.50;64.80
23729;DHT22;12045;60.214;24.724;2022-07-01T12:14:23;31.50;64.70
23729;DHT22;12045;60.214;24.724;2022-07-01T12:16:56;31.40;64.70
23729;DHT22;12045;60.214;24.724;2022-07-01T12:19:38;31.40;65.00
23729;DHT22;12045;60.214;24.724;2022-07-01T12:22:12;31.50;65.00
23729;DHT22;12045;60.214;24.724;2022-07-01T12:24:40;31.50;64.70
23729;DHT22;12045;60.214;24.724;2022-07-01T12:27:09;31.30;64.80
23729;DHT22;12045;60.214;24.724;2022-07-01T12:30:02;31.10;65.70
23729;DHT22;12045;60.214;24.724;2022-07-01T12:32:35;30.90;66.20
23729;DHT22;12045;60.214;24.724;2022-07-01T12:35:06;30.70;66.30
23729;DHT22;12045;60.214;24.724;2022-07-01T12:37:57;30.50;65.40
23729;DHT22;12045;60.214;24.724;2022-07-01T12:40:27;30.40;66.40
23729;DHT22;12045;60.214;24.724;2022-07-01T12:42:57;30.40;66.40
23729;DHT22;12045;60.214;24.724;2022-07-01T12:45:39;30.30;66.50
23729;DHT22;12045;60.214;24.724;2022-07-01T12:48:08;30.00;65.40
23729;DHT22;12045;60.214;24.724;2022-07-01T12:53:31;29.30;67.50
23729;DHT22;12045;60.214;24.724;2022-07-01T12:56:00;29.00;67.80
23729;DHT22;12045;60.214;24.724;2022-07-01T12:58:30;29.10;68.30
23729;DHT22;12045;60.214;24.724;2022-07-01T13:01:00;29.10;68.70
23729;DHT22;12045;60.214;24.724;2022-07-01T13:03:39;28.90;68.70
23729;DHT22;12045;60.214;24.724;2022-07-01T13:06:34;28.70;68.90
23729;DHT22;12045;60.214;24.724;2022-07-01T13:09:04;28.90;69.90
23729;DHT22;12045;60.214;24.724;2022-07-01T13:11:35;28.40;70.00
23729;DHT22;12045;60.214;24.724;2022-07-01T13:14:05;28.00;71.10
23729;DHT22;12045;60.214;24.724;2022-07-01T13:16:33;27.90;71.20
23729;DHT22;12045;60.214;24.724;2022-07-01T13:19:01;27.80;71.70
23729;DHT22;12045;60.214;24.724;2022-07-01T13:21:28;27.90;72.80
23729;DHT22;12045;60.214;24.724;2022-07-01T13:23:57;27.90;72.70
23729;DHT22;12045;60.214;24.724;2022-07-01T13:26:45;27.90;73.10
23729;DHT22;12045;60.214;24.724;2022-07-01T13:29:12;27.70;73.30
23729;DHT22;12045;60.214;24.724;2022-07-01T13:31:40;27.60;73.90
23729;DHT22;12045;60.214;24.724;2022-07-01T13:34:11;27.50;74.10
23729;DHT22;12045;60.214;24.724;2022-07-01T13:36:42;27.50;74.70
23729;DHT22;12045;60.214;24.724;2022-07-01T13:39:11;27.30;75.00
23729;DHT22;12045;60.214;24.724;2022-07-01T13:41:50;27.20;75.60
23729;DHT22;12045;60.214;24.724;2022-07-01T13:44:22;27.10;75.80
23729;DHT22;12045;60.214;24.724;2022-07-01T13:47:03;27.00;76.00
23729;DHT22;12045;60.214;24.724;2022-07-01T13:50:07;26.80;77.20
23729;DHT22;12045;60.214;24.724;2022-07-01T13:52:37;26.80;77.20
23729;DHT22;12045;60.214;24.724;2022-07-01T13:55:34;26.60;77.70
23729;DHT22;12045;60.214;24.724;2022-07-01T13:58:10;26.60;78.20
23729;DHT22;12045;60.214;24.724;2022-07-01T14:01:05;26.50;78.20
23729;DHT22;12045;60.214;24.724;2022-07-01T14:03:55;26.60;78.40
23729;DHT22;12045;60.214;24.724;2022-07-01T14:06:25;26.50;78.30
23729;DHT22;12045;60.214;24.724;2022-07-01T14:08:56;26.40;78.60
23729;DHT22;12045;60.214;24.724;2022-07-01T14:11:43;26.40;78.70
23729;DHT22;12045;60.214;24.724;2022-07-01T14:14:16;26.40;78.20
23729;DHT22;12045;60.214;24.724;2022-07-01T14:16:44;26.50;78.20
23729;DHT22;12045;60.214;24.724;2022-07-01T14:19:12;26.50;78.90
23729;DHT22;12045;60.214;24.724;2022-07-01T14:21:40;26.50;79.30
23729;DHT22;12045;60.214;24.724;2022-07-01T14:24:08;26.50;79.70
23729;DHT22;12045;60.214;24.724;2022-07-01T14:26:35;26.50;79.70
23729;DHT22;12045;60.214;24.724;2022-07-01T14:29:03;26.40;79.80
23729;DHT22;12045;60.214;24.724;2022-07-01T14:31:38;26.50;79.90
23729;DHT22;12045;60.214;24.724;2022-07-01T14:34:06;26.50;80.40
23729;DHT22;12045;60.214;24.724;2022-07-01T14:36:33;26.50;80.10
23729;DHT22;12045;60.214;24.724;2022-07-01T14:39:01;26.50;80.40
23729;DHT22;12045;60.214;24.724;2022-07-01T14:41:29;26.50;80.10
23729;DHT22;12045;60.214;24.724;2022-07-01T14:44:13;26.40;81.10
23729;DHT22;12045;60.214;24.724;2022-07-01T14:47:19;26.30;81.20
23729;DHT22;12045;60.214;24.724;2022-07-01T14:49:47;26.30;81.80
23729;DHT22;12045;60.214;24.724;2022-07-01T14:52:31;26.40;81.20
23729;DHT22;12045;60.214;24.724;2022-07-01T14:54:59;26.40;81.30
23729;DHT22;12045;60.214;24.724;2022-07-01T14:57:29;26.40;81.10
23729;DHT22;12045;60.214;24.724;2022-07-01T15:00:03;26.50;81.20
23729;DHT22;12045;60.214;24.724;2022-07-01T15:02:38;26.50;81.00
23729;DHT22;12045;60.214;24.724;2022-07-01T15:05:09;26.50;80.80
23729;DHT22;12045;60.214;24.724;2022-07-01T15:07:50;26.40;80.90
23729;DHT22;12045;60.214;24.724;2022-07-01T15:10:26;26.40;81.00
23729;DHT22;12045;60.214;24.724;2022-07-01T15:12:57;26.40;81.20
23729;DHT22;12045;60.214;24.724;2022-07-01T15:15:38;26.30;81.30
23729;DHT22;12045;60.214;24.724;2022-07-01T15:18:06;26.30;81.70
23729;DHT22;12045;60.214;24.724;2022-07-01T15:20:34;26.40;81.90
23729;DHT22;12045;60.214;24.724;2022-07-01T15:23:01;26.30;81.60
23729;DHT22;12045;60.214;24.724;2022-07-01T15:25:29;26.30;82.00
23729;DHT22;12045;60.214;24.724;2022-07-01T15:27:57;26.20;82.40
23729;DHT22;12045;60.214;24.724;2022-07-01T15:30:25;26.10;82.50
23729;DHT22;12045;60.214;24.724;2022-07-01T15:32:52;26.10;82.90
23729;DHT22;12045;60.214;24.724;2022-07-01T15:35:22;26.00;83.30
23729;DHT22;12045;60.214;24.724;2022-07-01T15:37:50;26.00;83.60
23729;DHT22;12045;60.214;24.724;2022-07-01T15:40:18;26.00;83.30
23729;DHT22;12045;60.214;24.724;2022-07-01T15:42:46;26.00;83.40
23729;DHT22;12045;60.214;24.724;2022-07-01T15:45:13;26.00;83.40
23729;DHT22;12045;60.214;24.724;2022-07-01T15:47:41;26.00;83.60
23729;DHT22;12045;60.214;24.724;2022-07-01T15:50:34;26.00;83.70
23729;DHT22;12045;60.214;24.724;2022-07-01T15:53:02;26.00;83.80
23729;DHT22;12045;60.214;24.724;2022-07-01T15:55:30;26.00;83.90
23729;DHT22;12045;60.214;24.724;2022-07-01T15:57:57;26.00;84.20
23729;DHT22;12045;60.214;24.724;2022-07-01T16:00:26;26.00;84.30
23729;DHT22;12045;60.214;24.724;2022-07-01T16:02:54;26.00;84.20
23729;DHT22;12045;60.214;24.724;2022-07-01T16:05:22;25.90;84.70
23729;DHT22;12045;60.214;24.724;2022-07-01T16:07:57;25.80;85.40
23729;DHT22;12045;60.214;24.724;2022-07-01T16:10:31;25.80;85.30
23729;DHT22;12045;60.214;24.724;2022-07-01T16:13:02;25.80;85.70
23729;DHT22;12045;60.214;24.724;2022-07-01T16:15:34;25.70;86.20
23729;DHT22;12045;60.214;24.724;2022-07-01T16:18:07;25.70;86.40
23729;DHT22;12045;60.214;24.724;2022-07-01T16:20:45;25.60;86.60
23729;DHT22;12045;60.214;24.724;2022-07-01T16:23:18;25.70;86.60
23729;DHT22;12045;60.214;24.724;2022-07-01T16:25:47;25.80;86.90
23729;DHT22;12045;60.214;24.724;2022-07-01T16:30:51;25.80;86.80
23729;DHT22;12045;60.214;24.724;2022-07-01T16:33:20;25.90;86.90
23729;DHT22;12045;60.214;24.724;2022-07-01T16:35:50;25.90;86.80
23729;DHT22;12045;60.214;24.724;2022-07-01T16:38:31;25.80;87.00
23729;DHT22;12045;60.214;24.724;2022-07-01T16:41:10;25.80;87.20
23729;DHT22;12045;60.214;24.724;2022-07-01T16:43:47;25.90;87.40
23729;DHT22;12045;60.214;24.724;2022-07-01T16:46:20;25.80;87.50
23729;DHT22;12045;60.214;24.724;2022-07-01T16:48:50;25.80;87.70
23729;DHT22;12045;60.214;24.724;2022-07-01T16:51:18;25.70;87.90
23729;DHT22;12045;60.214;24.724;2022-07-01T16:53:50;25.60;88.60
23729;DHT22;12045;60.214;24.724;2022-07-01T16:56:21;25.50;88.90
23729;DHT22;12045;60.214;24.724;2022-07-01T16:59:01;25.60;89.30
23729;DHT22;12045;60.214;24.724;2022-07-01T17:01:29;25.60;89.20
23729;DHT22;12045;60.214;24.724;2022-07-01T17:03:59;25.60;89.10
23729;DHT22;12045;60.214;24.724;2022-07-01T17:06:28;25.60;89.10
23729;DHT22;12045;60.214;24.724;2022-07-01T17:11:29;25.60;89.30
23729;DHT22;12045;60.214;24.724;2022-07-01T17:13:58;25.60;89.40
23729;DHT22;12045;60.214;24.724;2022-07-01T17:16:26;25.60;89.50
23729;DHT22;12045;60.214;24.724;2022-07-01T17:18:54;25.60;89.70
23729;DHT22;12045;60.214;24.724;2022-07-01T17:21:27;25.50;89.80
23729;DHT22;12045;60.214;24.724;2022-07-01T17:23:57;25.60;90.00
23729;DHT22;12045;60.214;24.724;2022-07-01T17:26:31;25.50;90.20
23729;DHT22;12045;60.214;24.724;2022-07-01T17:29:03;25.40;90.20
23729;DHT22;12045;60.214;24.724;2022-07-01T17:31:50;25.40;90.30
23729;DHT22;12045;60.214;24.724;2022-07-01T17:34:24;25.40;90.40
23729;DHT22;12045;60.214;24.724;2022-07-01T17:36:53;25.40;90.60
23729;DHT22;12045;60.214;24.724;2022-07-01T17:39:20;25.40;90.70
23729;DHT22;12045;60.214;24.724;2022-07-01T17:41:54;25.40;90.80
23729;DHT22;12045;60.214;24.724;2022-07-01T17:44:24;25.30;90.90
23729;DHT22;12045;60.214;24.724;2022-07-01T17:46:53;25.30;91.00
23729;DHT22;12045;60.214;24.724;2022-07-01T17:49:26;25.30;91.10